sensor_id;sensor_type;location;lat;lon;timestamp;P1;durP1;ratioP1;P2;durP2;ratioP2
48871;SDS011;36154;51.674;7.824;2022-08-27T00:00:37;2.30;;;2.10;;
48871;SDS011;36154;51.674;7.824;2022-08-27T00:03:03;5.35;;;2.38;;
48871;SDS011;36154;51.674;7.824;2022-08-27T00:05:28;2.50;;;2.30;;
48871;SDS011;36154;51.674;7.824;2022-08-27T00:07:53;4.53;;;2.67;;
48871;SDS011;36154;51.674;7.824;2022-08-27T00:10:20;2.92;;;2.33;;
48871;SDS011;36154;51.674;7.824;2022-08-27T00:12:47;2.42;;;2.22;;
48871;SDS011;36154;51.674;7.824;2022-08-27T00:15:12;1.98;;;1.88;;
48871;SDS011;36154;51.674;7.824;2022-08-27T00:17:39;3.28;;;2.60;;
48871;SDS011;36154;51.674;7.824;2022-08-27T00:20:05;2.45;;;2.20;;
48871;SDS011;36154;51.674;7.824;2022-08-27T00:22:32;3.05;;;2.85;;
48871;SDS011;36154;51.674;7.824;2022-08-27T00:24:58;2.92;;;2.60;;
48871;SDS011;36154;51.674;7.824;2022-08-27T00:27:23;5.47;;;2.45;;
48871;SDS011;36154;51.674;7.824;2022-08-27T00:29:49;3.10;;;2.80;;
48871;SDS011;36154;51.674;7.824;2022-08-27T00:32:14;6.72;;;3.15;;
48871;SDS011;36154;51.674;7.824;2022-08-27T00:34:40;3.97;;;2.92;;
48871;SDS011;36154;51.674;7.824;2022-08-27T00:37:06;4.85;;;2.75;;
48871;SDS011;36154;51.674;7.824;2022-08-27T00:39:31;3.28;;;3.00;;
48871;SDS011;36154;51.674;7.824;2022-08-27T00:41:58;3.90;;;3.03;;
48871;SDS011;36154;51.674;7.824;2022-08-27T00:44:25;4.97;;;3.05;;
48871;SDS011;36154;51.674;7.824;2022-08-27T00:46:53;4.20;;;2.85;;
48871;SDS011;36154;51.674;7.824;2022-08-27T00:49:26;4.63;;;2.83;;
48871;SDS011;36154;51.674;7.824;2022-08-27T00:51:57;5.50;;;2.83;;
48871;SDS011;36154;51.674;7.824;2022-08-27T00:54:29;6.03;;;2.67;;
48871;SDS011;36154;51.674;7.824;2022-08-27T00:56:54;4.15;;;2.85;;
48871;SDS011;36154;51.674;7.824;2022-08-27T00:59:23;7.97;;;2.67;;
48871;SDS011;36154;51.674;7.824;2022-08-27T01:01:53;4.32;;;2.40;;
48871;SDS011;36154;51.674;7.824;2022-08-27T01:04:37;5.82;;;2.85;;
48871;SDS011;36154;51.674;7.824;2022-08-27T01:07:05;6.88;;;2.60;;
48871;SDS011;36154;51.674;7.824;2022-08-27T01:09:30;5.95;;;2.58;;
48871;SDS011;36154;51.674;7.824;2022-08-27T01:11:56;4.60;;;2.42;;
48871;SDS011;36154;51.674;7.824;2022-08-27T01:14:22;8.73;;;2.35;;
48871;SDS011;36154;51.674;7.824;2022-08-27T01:16:49;4.68;;;2.20;;
48871;SDS011;36154;51.674;7.824;2022-08-27T01:19:28;7.15;;;2.30;;
48871;SDS011;36154;51.674;7.824;2022-08-27T01:24:51;6.63;;;1.98;;
48871;SDS011;36154;51.674;7.824;2022-08-27T01:27:23;7.75;;;1.70;;
48871;SDS011;36154;51.674;7.824;2022-08-27T01:29:51;7.22;;;2.05;;
48871;SDS011;36154;51.674;7.824;2022-08-27T01:32:18;5.30;;;1.90;;
48871;SDS011;36154;51.674;7.824;2022-08-27T01:34:47;9.05;;;1.90;;
48871;SDS011;36154;51.674;7.824;2022-08-27T01:37:14;5.05;;;1.65;;
48871;SDS011;36154;51.674;7.824;2022-08-27T01:39:41;5.43;;;1.38;;
48871;SDS011;36154;51.674;7.824;2022-08-27T01:44:55;5.63;;;1.60;;
48871;SDS011;36154;51.674;7.824;2022-08-27T01:47:25;8.50;;;1.58;;
48871;SDS011;36154;51.674;7.824;2022-08-27T01:49:51;7.53;;;1.98;;
48871;SDS011;36154;51.674;7.824;2022-08-27T01:52:18;5.25;;;1.48;;
48871;SDS011;36154;51.674;7.824;2022-08-27T01:54:45;5.63;;;1.70;;
48871;SDS011;36154;51.674;7.824;2022-08-27T01:57:11;5.25;;;1.80;;
48871;SDS011;36154;51.674;7.824;2022-08-27T01:59:37;7.13;;;1.23;;
48871;SDS011;36154;51.674;7.824;2022-08-27T02:02:02;5.65;;;1.38;;
48871;SDS011;36154;51.674;7.824;2022-08-27T02:04:28;11.55;;;1.70;;
48871;SDS011;36154;51.674;7.824;2022-08-27T02:06:54;5.75;;;1.38;;
48871;SDS011;36154;51.674;7.824;2022-08-27T02:09:21;6.53;;;1.50;;
48871;SDS011;36154;51.674;7.824;2022-08-27T02:11:46;6.47;;;1.30;;
48871;SDS011;36154;51.674;7.824;2022-08-27T02:14:11;4.07;;;1.10;;
48871;SDS011;36154;51.674;7.824;2022-08-27T02:16:37;7.35;;;1.80;;
48871;SDS011;36154;51.674;7.824;2022-08-27T02:19:03;8.70;;;1.25;;
48871;SDS011;36154;51.674;7.824;2022-08-27T02:21:28;6.93;;;1.20;;
48871;SDS011;36154;51.674;7.824;2022-08-27T02:23:54;9.88;;;1.58;;
48871;SDS011;36154;51.674;7.824;2022-08-27T02:26:20;3.38;;;1.40;;
48871;SDS011;36154;51.674;7.824;2022-08-27T02:28:46;5.70;;;1.15;;
48871;SDS011;36154;51.674;7.824;2022-08-27T02:31:11;4.88;;;1.13;;
48871;SDS011;36154;51.674;7.824;2022-08-27T02:33:36;2.97;;;1.13;;
48871;SDS011;36154;51.674;7.824;2022-08-27T02:36:02;5.88;;;0.90;;
48871;SDS011;36154;51.674;7.824;2022-08-27T02:38:27;6.20;;;1.35;;
48871;SDS011;36154;51.674;7.824;2022-08-27T02:40:53;3.95;;;1.20;;
48871;SDS011;36154;51.674;7.824;2022-08-27T02:43:18;5.88;;;1.02;;
48871;SDS011;36154;51.674;7.824;2022-08-27T02:45:44;6.75;;;1.30;;
48871;SDS011;36154;51.674;7.824;2022-08-27T02:48:10;3.85;;;1.42;;
48871;SDS011;36154;51.674;7.824;2022-08-27T02:50:36;6.93;;;1.40;;
48871;SDS011;36154;51.674;7.824;2022-08-27T02:53:04;5.00;;;1.10;;
48871;SDS011;36154;51.674;7.824;2022-08-27T02:55:30;4.25;;;0.98;;
48871;SDS011;36154;51.674;7.824;2022-08-27T02:57:57;2.85;;;1.20;;
48871;SDS011;36154;51.674;7.824;2022-08-27T03:00:24;3.92;;;1.30;;
48871;SDS011;36154;51.674;7.824;2022-08-27T03:02:52;5.47;;;1.30;;
48871;SDS011;36154;51.674;7.824;2022-08-27T03:05:18;6.32;;;1.23;;
48871;SDS011;36154;51.674;7.824;2022-08-27T03:07:45;4.25;;;1.05;;
48871;SDS011;36154;51.674;7.824;2022-08-27T03:10:12;5.10;;;1.20;;
48871;SDS011;36154;51.674;7.824;2022-08-27T03:12:39;4.95;;;1.25;;
48871;SDS011;36154;51.674;7.824;2022-08-27T03:15:07;3.08;;;1.42;;
48871;SDS011;36154;51.674;7.824;2022-08-27T03:17:36;6.07;;;1.25;;
48871;SDS011;36154;51.674;7.824;2022-08-27T03:20:21;6.03;;;0.95;;
48871;SDS011;36154;51.674;7.824;2022-08-27T03:22:47;6.10;;;1.27;;
48871;SDS011;36154;51.674;7.824;2022-08-27T03:25:13;4.60;;;1.17;;
48871;SDS011;36154;51.674;7.824;2022-08-27T03:27:39;8.27;;;1.45;;
48871;SDS011;36154;51.674;7.824;2022-08-27T03:30:07;9.63;;;1.10;;
48871;SDS011;36154;51.674;7.824;2022-08-27T03:32:36;4.25;;;1.17;;
48871;SDS011;36154;51.674;7.824;2022-08-27T03:35:03;6.88;;;1.50;;
48871;SDS011;36154;51.674;7.824;2022-08-27T03:37:29;5.43;;;1.48;;
48871;SDS011;36154;51.674;7.824;2022-08-27T03:39:55;5.65;;;1.35;;
48871;SDS011;36154;51.674;7.824;2022-08-27T03:42:23;8.10;;;1.50;;
48871;SDS011;36154;51.674;7.824;2022-08-27T03:44:49;6.05;;;1.20;;
48871;SDS011;36154;51.674;7.824;2022-08-27T03:47:16;3.70;;;1.27;;
48871;SDS011;36154;51.674;7.824;2022-08-27T03:49:48;4.70;;;1.15;;
48871;SDS011;36154;51.674;7.824;2022-08-27T03:52:14;9.40;;;1.73;;
48871;SDS011;36154;51.674;7.824;2022-08-27T03:54:40;6.28;;;1.30;;
48871;SDS011;36154;51.674;7.824;2022-08-27T03:57:06;4.60;;;1.60;;
48871;SDS011;36154;51.674;7.824;2022-08-27T03:59:32;6.90;;;1.42;;
48871;SDS011;36154;51.674;7.824;2022-08-27T04:01:58;6.60;;;1.80;;
48871;SDS011;36154;51.674;7.824;2022-08-27T04:04:25;6.95;;;1.80;;
48871;SDS011;36154;51.674;7.824;2022-08-27T04:06:51;4.50;;;1.33;;
48871;SDS011;36154;51.674;7.824;2022-08-27T04:09:16;4.07;;;1.38;;
48871;SDS011;36154;51.674;7.824;2022-08-27T04:11:42;4.65;;;1.30;;
48871;SDS011;36154;51.674;7.824;2022-08-27T04:14:08;6.28;;;1.27;;
48871;SDS011;36154;51.674;7.824;2022-08-27T04:16:35;3.92;;;1.17;;
48871;SDS011;36154;51.674;7.824;2022-08-27T04:19:01;4.90;;;1.30;;
48871;SDS011;36154;51.674;7.824;2022-08-27T04:21:28;4.72;;;1.63;;
48871;SDS011;36154;51.674;7.824;2022-08-27T04:23:57;5.60;;;1.45;;
48871;SDS011;36154;51.674;7.824;2022-08-27T04:26:23;4.30;;;1.08;;
48871;SDS011;36154;51.674;7.824;2022-08-27T04:28:49;4.55;;;1.05;;
48871;SDS011;36154;51.674;7.824;2022-08-27T04:31:15;4.68;;;1.00;;
48871;SDS011;36154;51.674;7.824;2022-08-27T04:33:41;6.00;;;1.25;;
48871;SDS011;36154;51.674;7.824;2022-08-27T04:36:08;5.88;;;1.65;;
48871;SDS011;36154;51.674;7.824;2022-08-27T04:38:37;3.08;;;1.05;;
48871;SDS011;36154;51.674;7.824;2022-08-27T04:41:04;5.03;;;1.35;;
48871;SDS011;36154;51.674;7.824;2022-08-27T04:43:48;4.68;;;0.98;;
48871;SDS011;36154;51.674;7.824;2022-08-27T04:46:20;2.35;;;1.08;;
48871;SDS011;36154;51.674;7.824;2022-08-27T04:48:50;5.22;;;1.15;;
48871;SDS011;36154;51.674;7.824;2022-08-27T04:51:18;7.18;;;1.30;;
48871;SDS011;36154;51.674;7.824;2022-08-27T04:53:48;3.00;;;1.05;;
48871;SDS011;36154;51.674;7.824;2022-08-27T04:56:15;4.78;;;1.10;;
48871;SDS011;36154;51.674;7.824;2022-08-27T04:58:42;4.50;;;1.30;;
48871;SDS011;36154;51.674;7.824;2022-08-27T05:01:14;3.08;;;1.30;;
48871;SDS011;36154;51.674;7.824;2022-08-27T05:03:42;3.95;;;1.33;;
48871;SDS011;36154;51.674;7.824;2022-08-27T05:06:09;4.20;;;1.27;;
48871;SDS011;36154;51.674;7.824;2022-08-27T05:08:36;6.82;;;1.30;;
48871;SDS011;36154;51.674;7.824;2022-08-27T05:11:05;7.75;;;1.50;;
48871;SDS011;36154;51.674;7.824;2022-08-27T05:13:32;6.97;;;1.25;;
48871;SDS011;36154;51.674;7.824;2022-08-27T05:15:59;2.15;;;1.20;;
48871;SDS011;36154;51.674;7.824;2022-08-27T05:18:28;4.55;;;1.23;;
48871;SDS011;36154;51.674;7.824;2022-08-27T05:20:55;4.40;;;1.45;;
48871;SDS011;36154;51.674;7.824;2022-08-27T05:23:22;5.63;;;0.90;;
48871;SDS011;36154;51.674;7.824;2022-08-27T05:25:49;5.88;;;1.08;;
48871;SDS011;36154;51.674;7.824;2022-08-27T05:28:17;4.78;;;1.20;;
48871;SDS011;36154;51.674;7.824;2022-08-27T05:30:46;6.70;;;1.35;;
48871;SDS011;36154;51.674;7.824;2022-08-27T05:33:22;3.35;;;1.10;;
48871;SDS011;36154;51.674;7.824;2022-08-27T05:35:50;2.95;;;1.10;;
48871;SDS011;36154;51.674;7.824;2022-08-27T05:38:19;6.90;;;1.13;;
48871;SDS011;36154;51.674;7.824;2022-08-27T05:40:49;6.30;;;1.13;;
48871;SDS011;36154;51.674;7.824;2022-08-27T05:43:35;1.90;;;1.08;;
48871;SDS011;36154;51.674;7.824;2022-08-27T05:46:06;3.40;;;0.95;;
48871;SDS011;36154;51.674;7.824;2022-08-27T05:48:57;5.40;;;1.40;;
48871;SDS011;36154;51.674;7.824;2022-08-27T05:51:28;4.32;;;1.02;;
48871;SDS011;36154;51.674;7.824;2022-08-27T05:54:01;1.90;;;0.85;;
48871;SDS011;36154;51.674;7.824;2022-08-27T05:56:32;4.28;;;1.13;;
48871;SDS011;36154;51.674;7.824;2022-08-27T05:59:00;2.15;;;0.70;;
48871;SDS011;36154;51.674;7.824;2022-08-27T06:01:46;8.35;;;1.20;;
48871;SDS011;36154;51.674;7.824;2022-08-27T06:04:14;2.78;;;1.00;;
48871;SDS011;36154;51.674;7.824;2022-08-27T06:06:41;5.80;;;1.10;;
48871;SDS011;36154;51.674;7.824;2022-08-27T06:09:09;6.45;;;1.10;;
48871;SDS011;36154;51.674;7.824;2022-08-27T06:11:36;3.20;;;1.02;;
48871;SDS011;36154;51.674;7.824;2022-08-27T06:14:02;8.05;;;1.27;;
48871;SDS011;36154;51.674;7.824;2022-08-27T06:16:29;2.72;;;1.25;;
48871;SDS011;36154;51.674;7.824;2022-08-27T06:18:55;4.78;;;1.50;;
48871;SDS011;36154;51.674;7.824;2022-08-27T06:21:22;3.72;;;1.10;;
48871;SDS011;36154;51.674;7.824;2022-08-27T06:23:48;6.07;;;1.23;;
48871;SDS011;36154;51.674;7.824;2022-08-27T06:26:17;5.22;;;1.33;;
48871;SDS011;36154;51.674;7.824;2022-08-27T06:28:44;5.05;;;1.17;;
48871;SDS011;36154;51.674;7.824;2022-08-27T06:31:12;5.07;;;1.20;;
48871;SDS011;36154;51.674;7.824;2022-08-27T06:33:39;5.53;;;1.33;;
48871;SDS011;36154;51.674;7.824;2022-08-27T06:36:07;2.95;;;1.02;;
48871;SDS011;36154;51.674;7.824;2022-08-27T06:38:36;8.60;;;1.30;;
48871;SDS011;36154;51.674;7.824;2022-08-27T06:41:07;4.88;;;1.25;;
48871;SDS011;36154;51.674;7.824;2022-08-27T06:43:35;3.55;;;0.95;;
48871;SDS011;36154;51.674;7.824;2022-08-27T06:46:06;5.50;;;1.30;;
48871;SDS011;36154;51.674;7.824;2022-08-27T06:48:38;3.80;;;1.33;;
48871;SDS011;36154;51.674;7.824;2022-08-27T06:51:08;7.90;;;1.60;;
48871;SDS011;36154;51.674;7.824;2022-08-27T06:53:36;3.28;;;1.05;;
48871;SDS011;36154;51.674;7.824;2022-08-27T06:56:12;6.30;;;1.65;;
48871;SDS011;36154;51.674;7.824;2022-08-27T06:58:40;3.67;;;1.10;;
48871;SDS011;36154;51.674;7.824;2022-08-27T07:01:17;3.47;;;1.00;;
48871;SDS011;36154;51.674;7.824;2022-08-27T07:03:46;6.72;;;1.33;;
48871;SDS011;36154;51.674;7.824;2022-08-27T07:06:14;5.68;;;1.33;;
48871;SDS011;36154;51.674;7.824;2022-08-27T07:08:43;10.65;;;1.73;;
48871;SDS011;36154;51.674;7.824;2022-08-27T07:11:11;10.13;;;2.10;;
48871;SDS011;36154;51.674;7.824;2022-08-27T07:13:39;6.28;;;1.80;;
48871;SDS011;36154;51.674;7.824;2022-08-27T07:16:07;7.65;;;1.52;;
48871;SDS011;36154;51.674;7.824;2022-08-27T07:18:36;10.25;;;1.60;;
48871;SDS011;36154;51.674;7.824;2022-08-27T07:21:03;5.35;;;1.40;;
48871;SDS011;36154;51.674;7.824;2022-08-27T07:23:30;11.40;;;1.42;;
48871;SDS011;36154;51.674;7.824;2022-08-27T07:25:58;3.20;;;1.30;;
48871;SDS011;36154;51.674;7.824;2022-08-27T07:28:26;7.35;;;1.35;;
48871;SDS011;36154;51.674;7.824;2022-08-27T07:30:52;5.07;;;1.30;;
48871;SDS011;36154;51.674;7.824;2022-08-27T07:33:19;5.65;;;1.23;;
48871;SDS011;36154;51.674;7.824;2022-08-27T07:35:45;10.55;;;1.58;;
48871;SDS011;36154;51.674;7.824;2022-08-27T07:38:13;6.32;;;1.23;;
48871;SDS011;36154;51.674;7.824;2022-08-27T07:40:40;3.05;;;1.10;;
48871;SDS011;36154;51.674;7.824;2022-08-27T07:43:06;1.95;;;0.80;;
48871;SDS011;36154;51.674;7.824;2022-08-27T07:45:51;1.52;;;0.70;;
48871;SDS011;36154;51.674;7.824;2022-08-27T07:48:27;2.35;;;0.80;;
48871;SDS011;36154;51.674;7.824;2022-08-27T07:50:53;4.88;;;1.10;;
48871;SDS011;36154;51.674;7.824;2022-08-27T07:53:19;3.25;;;1.13;;
48871;SDS011;36154;51.674;7.824;2022-08-27T07:55:46;3.78;;;1.00;;
48871;SDS011;36154;51.674;7.824;2022-08-27T07:58:12;3.35;;;1.00;;
48871;SDS011;36154;51.674;7.824;2022-08-27T08:00:42;2.72;;;0.85;;
48871;SDS011;36154;51.674;7.824;2022-08-27T08:03:10;3.58;;;1.00;;
48871;SDS011;36154;51.674;7.824;2022-08-27T08:05:42;6.72;;;1.10;;
48871;SDS011;36154;51.674;7.824;2022-08-27T08:08:09;2.27;;;1.10;;
48871;SDS011;36154;51.674;7.824;2022-08-27T08:10:36;3.45;;;0.90;;
48871;SDS011;36154;51.674;7.824;2022-08-27T08:13:05;4.53;;;1.20;;
48871;SDS011;36154;51.674;7.824;2022-08-27T08:15:32;4.45;;;1.25;;
48871;SDS011;36154;51.674;7.824;2022-08-27T08:17:58;5.03;;;1.30;;
48871;SDS011;36154;51.674;7.824;2022-08-27T08:20:27;3.97;;;1.00;;
48871;SDS011;36154;51.674;7.824;2022-08-27T08:22:53;2.53;;;0.77;;
48871;SDS011;36154;51.674;7.824;2022-08-27T08:25:25;5.78;;;1.15;;
48871;SDS011;36154;51.674;7.824;2022-08-27T08:27:57;2.38;;;1.23;;
48871;SDS011;36154;51.674;7.824;2022-08-27T08:30:24;3.72;;;0.98;;
48871;SDS011;36154;51.674;7.824;2022-08-27T08:32:50;2.92;;;1.08;;
48871;SDS011;36154;51.674;7.824;2022-08-27T08:35:15;3.60;;;1.00;;
48871;SDS011;36154;51.674;7.824;2022-08-27T08:37:42;5.68;;;1.20;;
48871;SDS011;36154;51.674;7.824;2022-08-27T08:40:09;2.28;;;0.70;;
48871;SDS011;36154;51.674;7.824;2022-08-27T08:42:45;3.42;;;0.88;;
48871;SDS011;36154;51.674;7.824;2022-08-27T08:45:18;3.03;;;1.00;;
48871;SDS011;36154;51.674;7.824;2022-08-27T08:47:51;2.88;;;0.80;;
48871;SDS011;36154;51.674;7.824;2022-08-27T08:53:08;1.95;;;0.70;;
48871;SDS011;36154;51.674;7.824;2022-08-27T09:01:09;2.97;;;0.98;;
48871;SDS011;36154;51.674;7.824;2022-08-27T09:03:38;4.00;;;1.10;;
48871;SDS011;36154;51.674;7.824;2022-08-27T09:06:07;3.28;;;1.00;;
48871;SDS011;36154;51.674;7.824;2022-08-27T09:08:51;3.95;;;0.90;;
48871;SDS011;36154;51.674;7.824;2022-08-27T09:11:22;4.95;;;1.02;;
48871;SDS011;36154;51.674;7.824;2022-08-27T09:14:33;3.80;;;1.10;;
48871;SDS011;36154;51.674;7.824;2022-08-27T09:16:52;4.97;;;1.02;;
48871;SDS011;36154;51.674;7.824;2022-08-27T09:19:18;1.10;;;0.70;;
48871;SDS011;36154;51.674;7.824;2022-08-27T09:21:47;3.80;;;1.27;;
48871;SDS011;36154;51.674;7.824;2022-08-27T09:27:12;5.85;;;1.27;;
48871;SDS011;36154;51.674;7.824;2022-08-27T09:29:46;2.55;;;0.95;;
48871;SDS011;36154;51.674;7.824;2022-08-27T09:32:21;3.30;;;1.27;;
48871;SDS011;36154;51.674;7.824;2022-08-27T09:34:53;3.25;;;0.88;;
48871;SDS011;36154;51.674;7.824;2022-08-27T09:37:27;2.33;;;1.00;;
48871;SDS011;36154;51.674;7.824;2022-08-27T09:39:57;3.43;;;1.10;;
48871;SDS011;36154;51.674;7.824;2022-08-27T09:42:36;4.03;;;0.90;;
48871;SDS011;36154;51.674;7.824;2022-08-27T09:45:12;6.63;;;1.25;;
48871;SDS011;36154;51.674;7.824;2022-08-27T09:50:36;5.47;;;1.35;;
48871;SDS011;36154;51.674;7.824;2022-08-27T09:53:22;7.43;;;1.40;;
48871;SDS011;36154;51.674;7.824;2022-08-27T09:55:59;4.80;;;1.38;;
48871;SDS011;36154;51.674;7.824;2022-08-27T09:58:32;4.50;;;1.40;;
48871;SDS011;36154;51.674;7.824;2022-08-27T10:01:18;2.47;;;1.20;;
48871;SDS011;36154;51.674;7.824;2022-08-27T10:03:47;6.53;;;1.42;;
48871;SDS011;36154;51.674;7.824;2022-08-27T10:06:13;4.60;;;1.30;;
48871;SDS011;36154;51.674;7.824;2022-08-27T10:08:51;5.85;;;1.40;;
48871;SDS011;36154;51.674;7.824;2022-08-27T10:11:24;3.90;;;0.90;;
48871;SDS011;36154;51.674;7.824;2022-08-27T10:13:58;3.90;;;1.25;;
48871;SDS011;36154;51.674;7.824;2022-08-27T10:16:49;6.95;;;1.33;;
48871;SDS011;36154;51.674;7.824;2022-08-27T10:19:37;3.67;;;1.02;;
48871;SDS011;36154;51.674;7.824;2022-08-27T10:22:26;4.57;;;1.55;;
48871;SDS011;36154;51.674;7.824;2022-08-27T10:25:02;5.10;;;1.20;;
48871;SDS011;36154;51.674;7.824;2022-08-27T10:30:19;6.82;;;1.60;;
48871;SDS011;36154;51.674;7.824;2022-08-27T10:33:18;7.78;;;1.50;;
48871;SDS011;36154;51.674;7.824;2022-08-27T10:41:25;4.13;;;1.33;;
48871;SDS011;36154;51.674;7.824;2022-08-27T10:49:54;6.65;;;1.63;;
48871;SDS011;36154;51.674;7.824;2022-08-27T10:52:50;7.65;;;1.50;;
48871;SDS011;36154;51.674;7.824;2022-08-27T10:55:22;3.90;;;1.30;;
48871;SDS011;36154;51.674;7.824;2022-08-27T10:58:01;6.60;;;1.48;;
48871;SDS011;36154;51.674;7.824;2022-08-27T11:03:06;5.10;;;1.70;;
48871;SDS011;36154;51.674;7.824;2022-08-27T11:05:43;6.03;;;1.42;;
48871;SDS011;36154;51.674;7.824;2022-08-27T11:10:49;4.80;;;1.20;;
48871;SDS011;36154;51.674;7.824;2022-08-27T11:15:55;9.68;;;1.42;;
48871;SDS011;36154;51.674;7.824;2022-08-27T11:23:59;3.72;;;1.17;;
48871;SDS011;36154;51.674;7.824;2022-08-27T11:26:48;5.40;;;1.50;;
48871;SDS011;36154;51.674;7.824;2022-08-27T11:29:23;7.30;;;1.40;;
48871;SDS011;36154;51.674;7.824;2022-08-27T11:32:02;6.47;;;1.13;;
48871;SDS011;36154;51.674;7.824;2022-08-27T11:34:52;4.28;;;1.35;;
48871;SDS011;36154;51.674;7.824;2022-08-27T11:42:59;42.63;;;15.00;;
48871;SDS011;36154;51.674;7.824;2022-08-27T11:45:32;59.08;;;21.65;;
48871;SDS011;36154;51.674;7.824;2022-08-27T11:48:16;66.00;;;25.75;;
48871;SDS011;36154;51.674;7.824;2022-08-27T11:53:27;52.75;;;20.88;;
48871;SDS011;36154;51.674;7.824;2022-08-27T11:56:08;49.72;;;19.75;;
48871;SDS011;36154;51.674;7.824;2022-08-27T11:58:42;44.38;;;17.80;;
48871;SDS011;36154;51.674;7.824;2022-08-27T12:01:15;32.85;;;14.60;;
48871;SDS011;36154;51.674;7.824;2022-08-27T12:04:36;34.53;;;13.38;;
48871;SDS011;36154;51.674;7.824;2022-08-27T12:06:58;25.40;;;10.10;;
48871;SDS011;36154;51.674;7.824;2022-08-27T12:09:27;21.77;;;9.77;;
48871;SDS011;36154;51.674;7.824;2022-08-27T12:12:06;23.08;;;8.52;;
48871;SDS011;36154;51.674;7.824;2022-08-27T12:14:58;27.50;;;10.20;;
48871;SDS011;36154;51.674;7.824;2022-08-27T12:17:46;21.02;;;9.02;;
48871;SDS011;36154;51.674;7.824;2022-08-27T12:23:25;15.93;;;5.85;;
48871;SDS011;36154;51.674;7.824;2022-08-27T12:26:30;13.38;;;5.10;;
48871;SDS011;36154;51.674;7.824;2022-08-27T12:31:54;9.43;;;4.38;;
48871;SDS011;36154;51.674;7.824;2022-08-27T12:34:27;6.03;;;3.70;;
48871;SDS011;36154;51.674;7.824;2022-08-27T12:36:55;6.53;;;3.30;;
48871;SDS011;36154;51.674;7.824;2022-08-27T12:39:26;4.60;;;3.10;;
48871;SDS011;36154;51.674;7.824;2022-08-27T12:41:54;5.10;;;2.70;;
48871;SDS011;36154;51.674;7.824;2022-08-27T12:44:25;4.32;;;2.78;;
48871;SDS011;36154;51.674;7.824;2022-08-27T12:46:56;3.03;;;2.00;;
48871;SDS011;36154;51.674;7.824;2022-08-27T12:49:32;4.40;;;2.08;;
48871;SDS011;36154;51.674;7.824;2022-08-27T12:57:48;2.33;;;1.33;;
48871;SDS011;36154;51.674;7.824;2022-08-27T13:03:44;0.80;;;0.80;;
48871;SDS011;36154;51.674;7.824;2022-08-27T13:06:28;2.40;;;1.00;;
48871;SDS011;36154;51.674;7.824;2022-08-27T13:08:58;1.52;;;1.30;;
48871;SDS011;36154;51.674;7.824;2022-08-27T13:11:27;1.13;;;0.90;;
48871;SDS011;36154;51.674;7.824;2022-08-27T13:14:11;2.05;;;0.85;;
48871;SDS011;36154;51.674;7.824;2022-08-27T13:16:51;0.82;;;0.80;;
48871;SDS011;36154;51.674;7.824;2022-08-27T13:27:11;2.35;;;1.13;;
48871;SDS011;36154;51.674;7.824;2022-08-27T13:29:37;3.65;;;1.10;;
48871;SDS011;36154;51.674;7.824;2022-08-27T13:32:04;2.00;;;1.20;;
48871;SDS011;36154;51.674;7.824;2022-08-27T13:34:34;2.08;;;1.30;;
48871;SDS011;36154;51.674;7.824;2022-08-27T13:37:04;4.07;;;1.60;;
48871;SDS011;36154;51.674;7.824;2022-08-27T13:39:36;5.03;;;1.60;;
48871;SDS011;36154;51.674;7.824;2022-08-27T13:42:03;2.65;;;1.13;;
48871;SDS011;36154;51.674;7.824;2022-08-27T13:44:31;2.60;;;1.35;;
48871;SDS011;36154;51.674;7.824;2022-08-27T13:47:01;4.72;;;1.40;;
48871;SDS011;36154;51.674;7.824;2022-08-27T13:49:31;4.30;;;1.48;;
48871;SDS011;36154;51.674;7.824;2022-08-27T13:52:03;3.35;;;1.70;;
48871;SDS011;36154;51.674;7.824;2022-08-27T13:54:49;3.95;;;2.75;;
48871;SDS011;36154;51.674;7.824;2022-08-27T13:57:26;4.25;;;3.10;;
48871;SDS011;36154;51.674;7.824;2022-08-27T14:02:23;4.53;;;2.55;;
48871;SDS011;36154;51.674;7.824;2022-08-27T14:07:52;5.43;;;1.73;;
48871;SDS011;36154;51.674;7.824;2022-08-27T14:13:02;3.50;;;1.40;;
48871;SDS011;36154;51.674;7.824;2022-08-27T14:18:03;4.55;;;1.50;;
48871;SDS011;36154;51.674;7.824;2022-08-27T14:20:31;3.33;;;1.30;;
48871;SDS011;36154;51.674;7.824;2022-08-27T14:22:57;4.53;;;1.48;;
48871;SDS011;36154;51.674;7.824;2022-08-27T14:25:23;4.85;;;3.05;;
48871;SDS011;36154;51.674;7.824;2022-08-27T14:27:51;8.00;;;3.60;;
48871;SDS011;36154;51.674;7.824;2022-08-27T14:30:18;6.57;;;2.97;;
48871;SDS011;36154;51.674;7.824;2022-08-27T14:32:46;4.47;;;2.30;;
48871;SDS011;36154;51.674;7.824;2022-08-27T14:35:14;4.22;;;2.08;;
48871;SDS011;36154;51.674;7.824;2022-08-27T14:37:40;6.85;;;1.60;;
48871;SDS011;36154;51.674;7.824;2022-08-27T14:40:07;2.53;;;1.52;;
48871;SDS011;36154;51.674;7.824;2022-08-27T14:42:34;3.60;;;1.70;;
48871;SDS011;36154;51.674;7.824;2022-08-27T14:45:03;5.65;;;1.85;;
48871;SDS011;36154;51.674;7.824;2022-08-27T14:47:29;4.25;;;2.00;;
48871;SDS011;36154;51.674;7.824;2022-08-27T14:49:56;5.05;;;1.60;;
48871;SDS011;36154;51.674;7.824;2022-08-27T14:52:24;6.22;;;1.60;;
48871;SDS011;36154;51.674;7.824;2022-08-27T14:54:50;6.72;;;2.22;;
48871;SDS011;36154;51.674;7.824;2022-08-27T14:57:16;4.40;;;1.73;;
48871;SDS011;36154;51.674;7.824;2022-08-27T14:59:41;7.35;;;1.45;;
48871;SDS011;36154;51.674;7.824;2022-08-27T15:02:08;4.55;;;1.83;;
48871;SDS011;36154;51.674;7.824;2022-08-27T15:04:36;4.60;;;1.75;;
48871;SDS011;36154;51.674;7.824;2022-08-27T15:07:01;4.18;;;1.95;;
48871;SDS011;36154;51.674;7.824;2022-08-27T15:09:27;4.07;;;2.78;;
48871;SDS011;36154;51.674;7.824;2022-08-27T15:11:53;4.43;;;1.67;;
48871;SDS011;36154;51.674;7.824;2022-08-27T15:17:02;3.80;;;1.95;;
48871;SDS011;36154;51.674;7.824;2022-08-27T15:19:30;2.40;;;1.52;;
48871;SDS011;36154;51.674;7.824;2022-08-27T15:22:04;3.80;;;1.42;;
48871;SDS011;36154;51.674;7.824;2022-08-27T15:24:41;2.73;;;1.33;;
48871;SDS011;36154;51.674;7.824;2022-08-27T15:27:09;6.35;;;3.50;;
48871;SDS011;36154;51.674;7.824;2022-08-27T15:29:34;7.00;;;4.05;;
48871;SDS011;36154;51.674;7.824;2022-08-27T15:32:00;6.57;;;2.40;;
48871;SDS011;36154;51.674;7.824;2022-08-27T15:34:26;3.80;;;1.90;;
48871;SDS011;36154;51.674;7.824;2022-08-27T15:36:52;4.13;;;2.08;;
48871;SDS011;36154;51.674;7.824;2022-08-27T15:39:18;6.30;;;2.15;;
48871;SDS011;36154;51.674;7.824;2022-08-27T15:41:43;8.40;;;2.67;;
48871;SDS011;36154;51.674;7.824;2022-08-27T15:44:09;3.30;;;2.00;;
48871;SDS011;36154;51.674;7.824;2022-08-27T15:46:35;3.53;;;1.70;;
48871;SDS011;36154;51.674;7.824;2022-08-27T15:49:01;3.88;;;2.45;;
48871;SDS011;36154;51.674;7.824;2022-08-27T15:51:30;6.18;;;2.08;;
48871;SDS011;36154;51.674;7.824;2022-08-27T15:53:57;4.15;;;1.88;;
48871;SDS011;36154;51.674;7.824;2022-08-27T15:56:24;5.47;;;1.70;;
48871;SDS011;36154;51.674;7.824;2022-08-27T15:58:50;2.80;;;1.20;;
48871;SDS011;36154;51.674;7.824;2022-08-27T16:01:26;2.67;;;1.52;;
48871;SDS011;36154;51.674;7.824;2022-08-27T16:03:54;4.38;;;2.05;;
48871;SDS011;36154;51.674;7.824;2022-08-27T16:06:23;2.72;;;1.27;;
48871;SDS011;36154;51.674;7.824;2022-08-27T16:08:49;3.65;;;1.27;;
48871;SDS011;36154;51.674;7.824;2022-08-27T16:11:15;3.47;;;0.95;;
48871;SDS011;36154;51.674;7.824;2022-08-27T16:13:42;2.97;;;1.40;;
48871;SDS011;36154;51.674;7.824;2022-08-27T16:16:08;5.22;;;1.20;;
48871;SDS011;36154;51.674;7.824;2022-08-27T16:18:35;5.88;;;1.20;;
48871;SDS011;36154;51.674;7.824;2022-08-27T16:21:02;3.20;;;1.30;;
48871;SDS011;36154;51.674;7.824;2022-08-27T16:23:29;4.07;;;1.33;;
48871;SDS011;36154;51.674;7.824;2022-08-27T16:25:55;5.03;;;1.40;;
48871;SDS011;36154;51.674;7.824;2022-08-27T16:28:22;1.48;;;1.10;;
48871;SDS011;36154;51.674;7.824;2022-08-27T16:30:49;4.55;;;1.40;;
48871;SDS011;36154;51.674;7.824;2022-08-27T16:33:17;2.47;;;1.80;;